Time,TemperatureF,DewpointF,PressureIn,WindDirection,WindDirectionDegrees,WindSpeedMPH,WindSpeedGustMPH,Humidity,HourlyPrecipIn,Conditions,Clouds,dailyrainin,SoftwareType,DateUTC
2013-10-06 00:02:00,63.3,61.0,30.03,SSE,150,2.9,4.9,92,0.00,,,0.00,meteobridge,2013-10-06 04:02:00,
2013-10-06 00:08:00,63.3,61.0,30.03,SE,143,2.9,6.9,92,0.00,,,0.00,meteobridge,2013-10-06 04:08:00,
2013-10-06 00:13:00,63.3,61.0,30.03,East,86,2.0,4.0,92,0.00,,,0.00,meteobridge,2013-10-06 04:13:00,
2013-10-06 00:19:00,63.3,61.0,30.03,SE,131,0.9,4.0,92,0.00,,,0.00,meteobridge,2013-10-06 04:19:00,
2013-10-06 00:21:00,63.3,61.0,30.03,SSE,157,2.9,2.9,92,0.00,,,0.00,meteobridge,2013-10-06 04:21:00,
2013-10-06 00:29:00,63.1,60.8,30.02,South,183,2.9,8.9,92,0.00,,,0.00,meteobridge,2013-10-06 04:29:00,
2013-10-06 00:35:00,63.3,61.0,30.03,SSE,167,4.0,6.0,92,0.00,,,0.00,meteobridge,2013-10-06 04:35:00,
2013-10-06 00:41:00,63.3,61.0,30.03,SSW,205,4.0,6.0,92,0.00,,,0.00,meteobridge,2013-10-06 04:41:00,
2013-10-06 00:49:00,63.1,60.8,30.03,SSE,152,6.0,6.9,92,0.00,,,0.00,meteobridge,2013-10-06 04:49:00,
2013-10-06 00:56:00,63.3,61.0,30.03,ESE,105,2.0,4.9,92,0.00,,,0.00,meteobridge,2013-10-06 04:56:00,
2013-10-06 01:02:00,63.3,61.0,30.02,SSE,156,0.9,2.9,92,0.00,,,0.00,meteobridge,2013-10-06 05:02:00,
2013-10-06 01:10:00,63.3,61.0,30.03,SSE,159,2.0,2.9,92,0.00,,,0.00,meteobridge,2013-10-06 05:10:00,
2013-10-06 01:16:00,63.3,61.0,30.03,ESE,110,4.0,4.0,92,0.00,,,0.00,meteobridge,2013-10-06 05:16:00,
2013-10-06 01:22:00,63.1,60.8,30.02,SSE,160,2.0,4.0,92,0.00,,,0.00,meteobridge,2013-10-06 05:22:00,
2013-10-06 01:28:00,63.1,60.8,30.02,SSE,158,0.0,4.0,92,0.00,,,0.00,meteobridge,2013-10-06 05:28:00,
2013-10-06 01:35:00,63.0,60.6,30.02,SSE,148,2.9,4.0,92,0.00,,,0.00,meteobridge,2013-10-06 05:35:00,
2013-10-06 01:41:00,63.0,60.6,30.02,SSE,152,2.0,2.0,92,0.00,,,0.00,meteobridge,2013-10-06 05:41:00,
2013-10-06 01:49:00,63.0,60.6,30.02,South,172,2.9,6.9,92,0.00,,,0.00,meteobridge,2013-10-06 05:49:00,
2013-10-06 01:55:00,63.0,60.6,30.02,SSE,158,2.9,2.9,92,0.00,,,0.00,meteobridge,2013-10-06 05:55:00,
2013-10-06 02:01:00,63.0,60.6,30.02,SE,131,0.9,2.9,92,0.00,,,0.00,meteobridge,2013-10-06 06:01:00,
2013-10-06 02:07:00,62.8,60.4,30.02,SE,131,0.0,2.9,92,0.00,,,0.00,meteobridge,2013-10-06 06:07:00,
2013-10-06 02:13:00,62.8,60.4,30.02,SE,145,2.0,2.0,92,0.00,,,0.00,meteobridge,2013-10-06 06:13:00,
2013-10-06 02:19:00,62.8,60.4,30.02,SSE,153,4.0,4.9,92,0.00,,,0.00,meteobridge,2013-10-06 06:19:00,
2013-10-06 02:26:00,62.8,60.4,30.02,SSE,160,2.0,4.0,92,0.00,,,0.00,meteobridge,2013-10-06 06:26:00,
2013-10-06 02:32:00,62.8,60.4,30.01,SSE,158,4.0,4.0,92,0.00,,,0.00,meteobridge,2013-10-06 06:32:00,
2013-10-06 02:38:00,62.8,60.4,30.01,SE,132,0.0,0.0,92,0.00,,,0.00,meteobridge,2013-10-06 06:38:00,
2013-10-06 02:44:00,62.8,60.4,30.01,SE,126,4.0,4.0,92,0.00,,,0.00,meteobridge,2013-10-06 06:44:00,
2013-10-06 02:50:00,62.8,60.4,30.01,SE,131,2.0,2.0,92,0.00,,,0.00,meteobridge,2013-10-06 06:50:00,
2013-10-06 02:58:00,62.8,60.4,30.01,SSE,163,0.9,4.0,92,0.00,,,0.00,meteobridge,2013-10-06 06:58:00,
2013-10-06 03:05:00,62.8,60.4,30.01,SSE,155,0.0,2.9,92,0.00,,,0.00,meteobridge,2013-10-06 07:05:00,
2013-10-06 03:11:00,62.8,60.4,30.00,SE,142,0.9,4.0,92,0.00,,,0.00,meteobridge,2013-10-06 07:11:00,
2013-10-06 03:17:00,62.8,60.4,30.00,SE,145,4.0,6.0,92,0.00,,,0.00,meteobridge,2013-10-06 07:17:00,
2013-10-06 03:23:00,62.6,60.3,30.00,SSE,148,2.0,4.0,92,0.00,,,0.00,meteobridge,2013-10-06 07:23:00,
2013-10-06 03:29:00,62.6,60.3,30.00,SSE,160,2.9,4.9,92,0.00,,,0.00,meteobridge,2013-10-06 07:29:00,
2013-10-06 03:35:00,62.6,60.3,30.00,SSE,150,0.9,4.0,92,0.00,,,0.00,meteobridge,2013-10-06 07:35:00,
2013-10-06 03:41:00,62.6,60.3,30.00,SSE,158,2.9,4.0,92,0.00,,,0.00,meteobridge,2013-10-06 07:41:00,
2013-10-06 03:48:00,62.6,60.3,30.00,SSE,157,4.0,6.0,92,0.00,,,0.00,meteobridge,2013-10-06 07:48:00,
2013-10-06 03:53:00,62.6,60.3,30.00,SE,127,0.0,2.9,92,0.00,,,0.00,meteobridge,2013-10-06 07:53:00,
2013-10-06 04:00:00,62.6,60.3,30.00,SE,139,0.0,4.9,92,0.00,,,0.00,meteobridge,2013-10-06 08:00:00,
2013-10-06 04:06:00,62.6,60.3,30.01,WSW,249,0.0,2.0,92,0.00,,,0.00,meteobridge,2013-10-06 08:06:00,
2013-10-06 04:12:00,62.4,60.1,30.01,South,172,4.0,4.9,92,0.00,,,0.00,meteobridge,2013-10-06 08:12:00,
2013-10-06 04:20:00,62.4,60.1,30.01,SSE,148,0.9,2.0,92,0.00,,,0.00,meteobridge,2013-10-06 08:20:00,
2013-10-06 04:26:00,62.4,60.1,30.01,SE,132,0.0,2.9,92,0.00,,,0.00,meteobridge,2013-10-06 08:26:00,
2013-10-06 04:32:00,62.4,60.1,30.01,East,98,0.0,0.0,92,0.00,,,0.00,meteobridge,2013-10-06 08:32:00,
2013-10-06 04:38:00,62.4,60.1,30.01,SSE,148,0.0,0.0,92,0.00,,,0.00,meteobridge,2013-10-06 08:38:00,
2013-10-06 04:44:00,62.4,60.1,30.01,ESE,117,0.0,0.0,92,0.00,,,0.00,meteobridge,2013-10-06 08:44:00,
2013-10-06 04:51:00,62.4,60.4,30.01,SE,129,0.0,0.0,93,0.00,,,0.00,meteobridge,2013-10-06 08:51:00,
2013-10-06 04:57:00,62.4,60.4,30.01,ESE,121,0.0,0.0,93,0.00,,,0.00,meteobridge,2013-10-06 08:57:00,
2013-10-06 05:03:00,62.4,60.4,30.01,SE,131,0.0,0.9,93,0.00,,,0.00,meteobridge,2013-10-06 09:03:00,
2013-10-06 05:09:00,62.4,60.4,30.01,SW,215,0.0,0.0,93,0.00,,,0.00,meteobridge,2013-10-06 09:09:00,
2013-10-06 05:15:00,62.4,60.4,30.01,SSE,157,0.0,0.0,93,0.00,,,0.00,meteobridge,2013-10-06 09:15:00,
2013-10-06 05:22:00,62.6,60.6,30.01,ESE,114,0.0,0.0,93,0.00,,,0.00,meteobridge,2013-10-06 09:22:00,
2013-10-06 05:24:00,62.4,60.4,30.01,ESE,115,0.0,0.0,93,0.00,,,0.00,meteobridge,2013-10-06 09:24:00,
2013-10-06 05:30:00,62.4,60.4,30.01,ESE,117,0.0,0.0,93,0.00,,,0.00,meteobridge,2013-10-06 09:30:00,
2013-10-06 05:38:00,62.4,60.4,30.01,SSE,167,0.0,0.0,93,0.00,,,0.00,meteobridge,2013-10-06 09:38:00,
2013-10-06 05:45:00,62.2,60.3,30.01,SE,134,0.0,0.0,93,0.00,,,0.00,meteobridge,2013-10-06 09:45:00,
2013-10-06 05:51:00,62.2,60.3,30.01,SSE,155,0.0,0.0,93,0.00,,,0.00,meteobridge,2013-10-06 09:51:00,
2013-10-06 05:57:00,62.2,60.3,30.01,SE,143,0.0,0.0,93,0.00,,,0.00,meteobridge,2013-10-06 09:57:00,
2013-10-06 06:03:00,62.2,60.3,30.01,ESE,105,0.0,0.0,93,0.00,,,0.00,meteobridge,2013-10-06 10:03:00,
2013-10-06 06:09:00,62.2,60.3,30.01,SE,125,0.0,0.0,93,0.00,,,0.00,meteobridge,2013-10-06 10:09:00,
2013-10-06 06:15:00,62.2,60.3,30.01,ESE,117,0.0,0.0,93,0.00,,,0.00,meteobridge,2013-10-06 10:15:00,
2013-10-06 06:21:00,62.2,60.3,30.01,SSE,160,0.0,4.0,93,0.00,,,0.00,meteobridge,2013-10-06 10:21:00,
2013-10-06 06:29:00,62.2,60.3,30.01,ESE,117,0.0,2.0,93,0.00,,,0.00,meteobridge,2013-10-06 10:29:00,
2013-10-06 06:35:00,62.2,60.3,30.02,SE,131,2.0,2.9,93,0.00,,,0.00,meteobridge,2013-10-06 10:35:00,
2013-10-06 06:42:00,62.2,60.3,30.02,ESE,117,0.0,0.0,93,0.00,,,0.00,meteobridge,2013-10-06 10:42:00,
2013-10-06 06:54:00,62.2,60.3,30.02,SSE,160,0.9,4.0,93,0.00,,,0.00,meteobridge,2013-10-06 10:54:00,
2013-10-06 07:00:00,62.2,60.3,30.02,SSE,153,0.0,2.9,93,0.00,,,0.00,meteobridge,2013-10-06 11:00:00,
2013-10-06 07:06:00,62.4,60.4,30.02,SSE,159,4.0,4.0,93,0.00,,,0.00,meteobridge,2013-10-06 11:06:00,
2013-10-06 07:12:00,62.4,60.4,30.02,SSW,213,2.9,4.0,93,0.00,,,0.00,meteobridge,2013-10-06 11:12:00,
2013-10-06 07:19:00,62.4,60.4,30.02,SSW,195,0.0,2.0,93,0.00,,,0.00,meteobridge,2013-10-06 11:19:00,
2013-10-06 07:25:00,62.4,60.4,30.02,SSE,158,0.9,2.9,93,0.00,,,0.00,meteobridge,2013-10-06 11:25:00,
2013-10-06 07:31:00,62.4,60.4,30.02,SSE,160,2.0,2.0,93,0.00,,,0.00,meteobridge,2013-10-06 11:31:00,
2013-10-06 07:39:00,62.4,60.4,30.02,SSE,160,2.9,2.9,93,0.00,,,0.00,meteobridge,2013-10-06 11:39:00,
2013-10-06 07:54:00,62.6,60.6,30.02,SE,145,2.0,2.9,93,0.00,,,0.00,meteobridge,2013-10-06 11:54:00,
2013-10-06 08:00:00,62.4,60.4,30.02,ESE,121,2.0,2.9,93,0.00,,,0.00,meteobridge,2013-10-06 12:00:00,
2013-10-06 08:06:00,62.4,60.4,30.03,SE,139,0.0,4.0,93,0.00,,,0.00,meteobridge,2013-10-06 12:06:00,
2013-10-06 08:12:00,62.4,60.4,30.03,SSE,148,2.0,4.0,93,0.00,,,0.00,meteobridge,2013-10-06 12:12:00,
2013-10-06 08:18:00,62.4,60.4,30.03,SSW,210,2.0,4.0,93,0.00,,,0.00,meteobridge,2013-10-06 12:18:00,
2013-10-06 08:24:00,62.4,60.4,30.03,SE,134,0.0,2.9,93,0.00,,,0.00,meteobridge,2013-10-06 12:24:00,
2013-10-06 08:31:00,62.4,60.4,30.03,SSE,152,4.0,4.0,93,0.00,,,0.00,meteobridge,2013-10-06 12:31:00,
2013-10-06 08:39:00,62.4,60.4,30.03,ESE,108,2.9,2.9,93,0.00,,,0.00,meteobridge,2013-10-06 12:39:00,
2013-10-06 08:45:00,62.4,60.4,30.03,ESE,112,0.9,2.0,93,0.00,,,0.00,meteobridge,2013-10-06 12:45:00,
2013-10-06 08:51:00,62.6,60.6,30.03,South,181,0.0,4.0,93,0.00,,,0.00,meteobridge,2013-10-06 12:51:00,
2013-10-06 08:57:00,62.6,60.6,30.03,ESE,105,2.9,4.0,93,0.00,,,0.00,meteobridge,2013-10-06 12:57:00,
2013-10-06 09:03:00,62.8,60.8,30.03,SSE,155,0.0,4.9,93,0.00,,,0.00,meteobridge,2013-10-06 13:03:00,
2013-10-06 09:09:00,62.8,60.8,30.03,East,101,2.0,4.9,93,0.00,,,0.00,meteobridge,2013-10-06 13:09:00,
2013-10-06 09:15:00,62.8,60.8,30.03,ESE,110,2.0,4.0,93,0.00,,,0.00,meteobridge,2013-10-06 13:15:00,
2013-10-06 09:22:00,62.8,60.8,30.04,SE,132,0.9,2.9,93,0.00,,,0.00,meteobridge,2013-10-06 13:22:00,
2013-10-06 09:30:00,62.8,60.8,30.04,ENE,64,2.0,6.0,93,0.00,,,0.00,meteobridge,2013-10-06 13:30:00,
2013-10-06 09:36:00,62.6,60.6,30.04,ESE,102,0.9,2.9,93,0.00,,,0.00,meteobridge,2013-10-06 13:36:00,
2013-10-06 09:42:00,62.6,60.6,30.04,South,190,4.0,6.0,93,0.00,,,0.00,meteobridge,2013-10-06 13:42:00,
2013-10-06 09:50:00,62.8,60.8,30.04,SSW,201,0.9,6.0,93,0.00,,,0.00,meteobridge,2013-10-06 13:50:00,
2013-10-06 09:56:00,62.8,60.8,30.04,SSW,213,2.0,6.0,93,0.00,,,0.00,meteobridge,2013-10-06 13:56:00,
2013-10-06 10:02:00,63.0,61.0,30.04,SSE,160,2.9,4.9,93,0.00,,,0.00,meteobridge,2013-10-06 14:02:00,
2013-10-06 10:09:00,62.8,60.8,30.04,SSE,155,4.0,6.9,93,0.00,,,0.00,meteobridge,2013-10-06 14:09:00,
2013-10-06 10:15:00,63.0,61.0,30.04,SSW,206,2.0,8.1,93,0.00,,,0.00,meteobridge,2013-10-06 14:15:00,
2013-10-06 10:21:00,63.0,61.0,30.04,SSE,165,4.0,4.0,93,0.00,,,0.00,meteobridge,2013-10-06 14:21:00,
2013-10-06 10:29:00,63.0,61.0,30.04,SSE,148,2.0,8.1,93,0.00,,,0.00,meteobridge,2013-10-06 14:29:00,
2013-10-06 10:35:00,63.0,61.0,30.04,ESE,112,2.9,4.0,93,0.00,,,0.00,meteobridge,2013-10-06 14:35:00,
2013-10-06 10:41:00,63.1,61.2,30.04,SE,144,2.9,4.9,93,0.00,,,0.00,meteobridge,2013-10-06 14:41:00,
2013-10-06 10:49:00,63.3,61.3,30.04,ESE,107,2.9,4.9,93,0.00,,,0.00,meteobridge,2013-10-06 14:49:00,
2013-10-06 10:55:00,63.3,61.3,30.04,ESE,109,2.0,4.9,93,0.00,,,0.00,meteobridge,2013-10-06 14:55:00,
2013-10-06 11:01:00,63.5,61.5,30.04,South,185,2.0,4.9,93,0.00,,,0.00,meteobridge,2013-10-06 15:01:00,
2013-10-06 11:08:00,63.3,61.3,30.04,ESE,109,2.9,8.1,93,0.00,,,0.00,meteobridge,2013-10-06 15:08:00,
2013-10-06 11:14:00,63.3,61.3,30.04,ESE,114,4.0,8.1,93,0.00,,,0.00,meteobridge,2013-10-06 15:14:00,
2013-10-06 11:20:00,63.3,61.3,30.04,East,100,2.0,8.1,93,0.00,,,0.00,meteobridge,2013-10-06 15:20:00,
2013-10-06 11:26:00,63.3,61.3,30.04,SE,143,0.9,4.9,93,0.00,,,0.00,meteobridge,2013-10-06 15:26:00,
2013-10-06 11:32:00,63.5,61.5,30.03,East,90,2.9,4.9,93,0.00,,,0.00,meteobridge,2013-10-06 15:32:00,
2013-10-06 11:38:00,63.7,61.7,30.04,East,97,4.0,8.1,93,0.00,,,0.00,meteobridge,2013-10-06 15:38:00,
2013-10-06 11:44:00,63.5,61.5,30.03,South,180,2.0,4.9,93,0.00,,,0.00,meteobridge,2013-10-06 15:44:00,
2013-10-06 11:50:00,63.7,61.7,30.03,SE,146,2.9,6.0,93,0.00,,,0.00,meteobridge,2013-10-06 15:50:00,
2013-10-06 11:56:00,63.7,61.7,30.03,SE,132,2.9,6.9,93,0.00,,,0.00,meteobridge,2013-10-06 15:56:00,
2013-10-06 12:02:00,63.9,61.9,30.03,SSE,167,6.0,6.0,93,0.00,,,0.00,meteobridge,2013-10-06 16:02:00,
2013-10-06 12:08:00,63.9,61.9,30.03,SSE,156,2.0,4.9,93,0.00,,,0.00,meteobridge,2013-10-06 16:08:00,
2013-10-06 12:15:00,63.9,61.9,30.03,South,173,2.0,6.0,93,0.00,,,0.00,meteobridge,2013-10-06 16:15:00,
2013-10-06 12:21:00,64.0,62.1,30.03,SSE,160,2.9,2.9,93,0.00,,,0.00,meteobridge,2013-10-06 16:21:00,
2013-10-06 12:27:00,63.9,61.9,30.03,SE,141,4.9,6.9,93,0.00,,,0.00,meteobridge,2013-10-06 16:27:00,
2013-10-06 12:33:00,63.9,61.9,30.03,SSE,155,6.9,8.1,93,0.00,,,0.00,meteobridge,2013-10-06 16:33:00,
2013-10-06 12:39:00,63.9,61.9,30.03,SSE,167,4.9,11.0,93,0.00,,,0.00,meteobridge,2013-10-06 16:39:00,
2013-10-06 12:45:00,63.9,61.9,30.03,SE,145,4.0,8.1,93,0.00,,,0.00,meteobridge,2013-10-06 16:45:00,
2013-10-06 12:51:00,63.9,61.9,30.03,SE,146,4.0,6.9,93,0.00,,,0.00,meteobridge,2013-10-06 16:51:00,
2013-10-06 12:59:00,63.9,61.9,30.03,South,188,8.1,11.0,93,0.00,,,0.00,meteobridge,2013-10-06 16:59:00,
2013-10-06 13:05:00,63.9,61.9,30.03,SSE,148,4.0,6.0,93,0.00,,,0.00,meteobridge,2013-10-06 17:05:00,
2013-10-06 13:12:00,64.0,62.1,30.02,SE,125,4.0,4.9,93,0.00,,,0.00,meteobridge,2013-10-06 17:12:00,
2013-10-06 13:20:00,64.0,62.1,30.02,SE,134,2.9,4.9,93,0.00,,,0.00,meteobridge,2013-10-06 17:20:00,
2013-10-06 13:26:00,64.0,62.1,30.02,ESE,117,2.9,6.0,93,0.00,,,0.00,meteobridge,2013-10-06 17:26:00,
2013-10-06 13:32:00,64.2,62.2,30.01,SSE,165,2.9,8.1,93,0.00,,,0.00,meteobridge,2013-10-06 17:32:00,
2013-10-06 13:38:00,64.2,62.2,30.01,ESE,120,4.9,6.0,93,0.00,,,0.00,meteobridge,2013-10-06 17:38:00,
2013-10-06 13:44:00,64.2,62.2,30.01,SE,130,2.0,6.0,93,0.00,,,0.00,meteobridge,2013-10-06 17:44:00,
2013-10-06 13:50:00,64.2,62.2,30.01,ESE,109,4.9,8.1,93,0.00,,,0.00,meteobridge,2013-10-06 17:50:00,
2013-10-06 13:56:00,64.0,62.1,30.01,ESE,114,4.9,10.1,93,0.00,,,0.00,meteobridge,2013-10-06 17:56:00,
2013-10-06 14:02:00,64.0,62.1,30.01,East,86,4.0,4.9,93,0.00,,,0.00,meteobridge,2013-10-06 18:02:00,
2013-10-06 14:08:00,64.2,62.2,30.01,SSW,202,2.9,6.0,93,0.00,,,0.00,meteobridge,2013-10-06 18:08:00,
2013-10-06 14:15:00,64.2,62.2,30.01,SSE,158,4.0,13.0,93,0.00,,,0.00,meteobridge,2013-10-06 18:15:00,
2013-10-06 14:21:00,64.2,62.2,30.01,SSE,150,4.0,4.9,93,0.00,,,0.00,meteobridge,2013-10-06 18:21:00,
2013-10-06 14:27:00,64.2,62.2,30.01,ESE,112,2.0,10.1,93,0.00,,,0.00,meteobridge,2013-10-06 18:27:00,
2013-10-06 14:33:00,64.2,62.2,30.01,SSE,148,2.9,6.9,93,0.00,,,0.00,meteobridge,2013-10-06 18:33:00,
2013-10-06 14:39:00,64.2,62.2,30.01,South,170,4.9,6.9,93,0.00,,,0.00,meteobridge,2013-10-06 18:39:00,
2013-10-06 14:45:00,64.6,62.4,30.01,SSE,149,0.9,4.0,93,0.00,,,0.00,meteobridge,2013-10-06 18:45:00,
2013-10-06 14:51:00,64.6,62.4,30.00,SSE,158,0.9,6.9,93,0.00,,,0.00,meteobridge,2013-10-06 18:51:00,
2013-10-06 14:59:00,64.8,62.6,30.01,SSE,158,4.0,8.9,93,0.00,,,0.00,meteobridge,2013-10-06 18:59:00,
2013-10-06 15:05:00,64.6,62.4,30.01,SE,139,12.1,12.1,93,0.00,,,0.00,meteobridge,2013-10-06 19:05:00,
2013-10-06 15:12:00,64.6,62.4,30.00,ENE,57,2.0,10.1,93,0.00,,,0.00,meteobridge,2013-10-06 19:12:00,
2013-10-06 15:20:00,64.8,62.6,30.00,SE,125,0.0,6.0,93,0.00,,,0.00,meteobridge,2013-10-06 19:20:00,
2013-10-06 15:26:00,64.8,62.6,30.00,SSE,166,2.9,6.0,93,0.00,,,0.00,meteobridge,2013-10-06 19:26:00,
2013-10-06 15:32:00,64.8,62.6,30.00,SE,125,2.0,4.0,93,0.00,,,0.00,meteobridge,2013-10-06 19:32:00,
2013-10-06 15:38:00,64.8,62.6,30.00,ESE,114,4.0,8.9,93,0.00,,,0.00,meteobridge,2013-10-06 19:38:00,
2013-10-06 15:44:00,64.8,62.6,30.00,SE,136,2.9,6.9,93,0.00,,,0.00,meteobridge,2013-10-06 19:44:00,
2013-10-06 15:50:00,64.8,62.6,30.00,SSE,150,0.9,6.9,93,0.00,,,0.00,meteobridge,2013-10-06 19:50:00,
2013-10-06 15:56:00,64.8,62.6,30.00,SE,136,4.9,6.9,93,0.00,,,0.00,meteobridge,2013-10-06 19:56:00,
2013-10-06 16:02:00,64.8,62.6,30.00,SSE,156,4.9,10.1,93,0.00,,,0.00,meteobridge,2013-10-06 20:02:00,
2013-10-06 16:09:00,64.8,62.6,30.00,SSE,154,4.9,6.9,93,0.00,,,0.00,meteobridge,2013-10-06 20:09:00,
2013-10-06 16:15:00,64.9,62.8,30.00,SSE,156,2.9,4.9,93,0.00,,,0.00,meteobridge,2013-10-06 20:15:00,
2013-10-06 16:21:00,64.9,62.8,30.00,SSE,155,2.9,4.9,93,0.00,,,0.00,meteobridge,2013-10-06 20:21:00,
2013-10-06 16:29:00,64.9,62.8,30.00,SSE,157,4.9,6.9,93,0.00,,,0.00,meteobridge,2013-10-06 20:29:00,
2013-10-06 16:35:00,64.8,62.6,30.00,South,184,0.9,8.1,93,0.00,,,0.00,meteobridge,2013-10-06 20:35:00,
2013-10-06 16:41:00,64.8,62.6,29.99,East,79,4.0,6.0,93,0.00,,,0.00,meteobridge,2013-10-06 20:41:00,
2013-10-06 16:49:00,64.8,62.6,30.00,SSE,148,8.1,11.0,93,0.00,,,0.00,meteobridge,2013-10-06 20:49:00,
2013-10-06 16:55:00,64.8,62.6,29.99,East,94,2.9,8.1,93,0.00,,,0.00,meteobridge,2013-10-06 20:55:00,
2013-10-06 17:01:00,64.8,62.6,29.99,South,172,2.9,6.0,93,0.00,,,0.00,meteobridge,2013-10-06 21:01:00,
2013-10-06 17:07:00,64.8,62.6,29.99,SE,133,2.9,6.0,93,0.00,,,0.00,meteobridge,2013-10-06 21:07:00,
2013-10-06 17:14:00,64.8,62.6,29.99,ESE,105,4.9,4.9,93,0.00,,,0.00,meteobridge,2013-10-06 21:14:00,
2013-10-06 17:20:00,64.6,62.4,29.99,East,94,4.0,8.9,93,0.00,,,0.00,meteobridge,2013-10-06 21:20:00,
2013-10-06 17:26:00,64.6,62.4,29.99,ESE,112,0.9,6.9,93,0.00,,,0.00,meteobridge,2013-10-06 21:26:00,
2013-10-06 17:32:00,64.6,62.4,29.99,East,99,4.0,6.9,93,0.00,,,0.00,meteobridge,2013-10-06 21:32:00,
2013-10-06 17:38:00,64.6,62.4,29.99,ESE,119,4.0,8.9,93,0.00,,,0.00,meteobridge,2013-10-06 21:38:00,
2013-10-06 17:44:00,64.6,62.4,29.99,ESE,111,4.9,6.0,93,0.00,,,0.00,meteobridge,2013-10-06 21:44:00,
2013-10-06 17:50:00,64.2,62.2,29.99,East,99,6.0,10.1,93,0.00,,,0.00,meteobridge,2013-10-06 21:50:00,
2013-10-06 17:56:00,64.2,62.2,29.99,SE,132,4.0,8.9,93,0.00,,,0.00,meteobridge,2013-10-06 21:56:00,
2013-10-06 18:02:00,64.2,62.2,29.99,SSE,165,4.0,4.9,93,0.00,,,0.00,meteobridge,2013-10-06 22:02:00,
2013-10-06 18:10:00,64.2,62.2,29.99,ENE,64,2.9,8.1,93,0.00,,,0.00,meteobridge,2013-10-06 22:10:00,
2013-10-06 18:17:00,64.0,62.1,29.99,SE,134,2.9,8.1,93,0.00,,,0.00,meteobridge,2013-10-06 22:17:00,
2013-10-06 18:23:00,64.0,62.1,29.99,ESE,102,2.9,8.9,93,0.00,,,0.00,meteobridge,2013-10-06 22:23:00,
2013-10-06 18:29:00,64.0,62.1,29.99,South,174,6.9,10.1,93,0.00,,,0.00,meteobridge,2013-10-06 22:29:00,
2013-10-06 18:35:00,63.9,61.9,29.99,SE,135,8.9,12.1,93,0.00,,,0.00,meteobridge,2013-10-06 22:35:00,
2013-10-06 18:41:00,63.9,61.9,29.99,East,80,6.9,11.0,93,0.00,,,0.00,meteobridge,2013-10-06 22:41:00,
2013-10-06 18:59:00,63.9,61.9,29.99,ESE,121,2.0,10.1,93,0.00,,,0.00,meteobridge,2013-10-06 22:59:00,
2013-10-06 19:05:00,63.7,61.7,29.99,East,101,4.9,11.0,93,0.00,,,0.00,meteobridge,2013-10-06 23:05:00,
2013-10-06 19:11:00,63.7,61.7,29.99,ESE,117,2.0,10.1,93,0.00,,,0.00,meteobridge,2013-10-06 23:11:00,
2013-10-06 19:20:00,63.7,61.7,29.99,SSE,167,6.0,8.1,93,0.00,,,0.00,meteobridge,2013-10-06 23:20:00,
2013-10-06 19:26:00,63.7,61.7,29.99,SSE,154,4.0,6.0,93,0.00,,,0.00,meteobridge,2013-10-06 23:26:00,
2013-10-06 19:32:00,63.7,61.7,29.99,SE,130,4.0,4.9,93,0.00,,,0.00,meteobridge,2013-10-06 23:32:00,
2013-10-06 19:40:00,63.7,61.7,29.99,ESE,109,2.9,10.1,93,0.00,,,0.00,meteobridge,2013-10-06 23:40:00,
2013-10-06 19:59:00,63.7,61.7,29.99,WSW,257,6.0,10.1,93,0.00,,,0.00,meteobridge,2013-10-06 23:59:00,
2013-10-06 20:05:00,63.7,61.7,30.00,SE,138,4.9,8.1,93,0.00,,,0.00,meteobridge,2013-10-07 00:05:00,
2013-10-06 20:11:00,63.9,61.9,30.00,SSE,158,6.9,6.9,93,0.00,,,0.00,meteobridge,2013-10-07 00:11:00,
2013-10-06 20:19:00,63.9,61.9,30.00,SSE,158,2.9,6.0,93,0.00,,,0.00,meteobridge,2013-10-07 00:19:00,
2013-10-06 20:26:00,63.9,61.9,30.00,SSE,150,4.0,8.9,93,0.00,,,0.00,meteobridge,2013-10-07 00:26:00,
2013-10-06 20:32:00,64.0,62.1,30.01,SSE,148,2.0,4.9,93,0.00,,,0.00,meteobridge,2013-10-07 00:32:00,
2013-10-06 20:38:00,64.0,62.1,30.00,ESE,120,2.9,6.9,93,0.00,,,0.00,meteobridge,2013-10-07 00:38:00,
2013-10-06 20:44:00,64.0,62.1,30.00,SE,127,4.0,8.9,93,0.01,,,0.01,meteobridge,2013-10-07 00:44:00,
2013-10-06 20:50:00,64.0,62.1,29.99,SE,124,4.9,11.0,93,0.01,,,0.01,meteobridge,2013-10-07 00:50:00,
2013-10-06 20:56:00,64.0,62.1,29.99,ESE,103,8.9,8.9,93,0.01,,,0.01,meteobridge,2013-10-07 00:56:00,
2013-10-06 21:02:00,64.2,62.2,29.99,SE,136,4.0,6.9,93,0.01,,,0.01,meteobridge,2013-10-07 01:02:00,
2013-10-06 21:08:00,64.2,62.2,29.99,SE,134,8.1,8.9,93,0.01,,,0.01,meteobridge,2013-10-07 01:08:00,
2013-10-06 21:14:00,64.4,62.4,29.99,ESE,120,11.0,11.0,93,0.01,,,0.01,meteobridge,2013-10-07 01:14:00,
2013-10-06 21:20:00,64.2,62.2,29.99,SE,141,2.0,8.1,93,0.01,,,0.01,meteobridge,2013-10-07 01:20:00,
2013-10-06 21:26:00,64.4,62.4,29.99,ESE,103,4.0,6.9,93,0.01,,,0.01,meteobridge,2013-10-07 01:26:00,
2013-10-06 21:32:00,64.4,62.4,29.99,ESE,121,4.0,6.0,93,0.01,,,0.01,meteobridge,2013-10-07 01:32:00,
2013-10-06 21:44:00,64.4,62.4,29.99,SE,139,2.0,8.1,93,0.00,,,0.01,meteobridge,2013-10-07 01:44:00,
2013-10-06 21:50:00,64.6,62.4,29.99,East,101,4.0,6.0,93,0.00,,,0.01,meteobridge,2013-10-07 01:50:00,
2013-10-06 21:56:00,64.6,62.4,29.99,South,174,4.9,10.1,93,0.00,,,0.01,meteobridge,2013-10-07 01:56:00,
2013-10-06 22:02:00,64.6,62.4,29.99,ESE,115,6.9,8.9,93,0.00,,,0.01,meteobridge,2013-10-07 02:02:00,
2013-10-06 22:09:00,64.8,62.6,29.99,SE,141,4.0,6.0,93,0.00,,,0.01,meteobridge,2013-10-07 02:09:00,
2013-10-06 22:15:00,64.8,62.6,29.99,SE,127,0.9,6.0,93,0.00,,,0.01,meteobridge,2013-10-07 02:15:00,
2013-10-06 22:21:00,64.9,62.8,29.99,East,80,2.0,4.9,93,0.00,,,0.01,meteobridge,2013-10-07 02:21:00,
2013-10-06 22:27:00,64.9,62.8,29.99,SE,129,0.0,4.0,93,0.00,,,0.01,meteobridge,2013-10-07 02:27:00,
2013-10-06 22:33:00,64.9,62.8,29.99,ESE,111,2.0,4.9,93,0.00,,,0.01,meteobridge,2013-10-07 02:33:00,
2013-10-06 22:39:00,64.9,62.8,29.99,SSE,165,6.0,6.9,93,0.00,,,0.01,meteobridge,2013-10-07 02:39:00,
2013-10-06 22:45:00,64.9,62.8,29.98,ESE,107,4.0,4.9,93,0.00,,,0.01,meteobridge,2013-10-07 02:45:00,
2013-10-06 22:51:00,64.9,62.8,29.98,ESE,117,11.0,11.0,93,0.00,,,0.01,meteobridge,2013-10-07 02:51:00,
2013-10-06 22:59:00,65.1,63.3,29.98,South,177,4.0,6.9,94,0.00,,,0.01,meteobridge,2013-10-07 02:59:00,
2013-10-06 23:05:00,65.1,63.3,29.98,SSE,152,4.0,6.9,94,0.00,,,0.01,meteobridge,2013-10-07 03:05:00,
2013-10-06 23:11:00,64.9,62.8,29.98,East,96,2.9,6.9,93,0.00,,,0.01,meteobridge,2013-10-07 03:11:00,
2013-10-06 23:20:00,64.9,63.1,29.98,South,184,2.0,6.0,94,0.00,,,0.01,meteobridge,2013-10-07 03:20:00,
2013-10-06 23:26:00,64.9,62.8,29.98,South,179,4.9,14.1,93,0.01,,,0.02,meteobridge,2013-10-07 03:26:00,
2013-10-06 23:32:00,64.9,63.1,29.98,SSE,160,2.9,6.9,94,0.01,,,0.02,meteobridge,2013-10-07 03:32:00,
2013-10-06 23:40:00,64.9,63.1,29.98,SSE,160,4.0,6.0,94,0.01,,,0.02,meteobridge,2013-10-07 03:40:00,
2013-10-06 23:46:00,64.8,63.0,29.97,South,180,4.0,6.9,94,0.01,,,0.02,meteobridge,2013-10-07 03:46:00,
2013-10-06 23:52:00,64.8,63.0,29.97,SSE,148,4.9,6.0,94,0.01,,,0.02,meteobridge,2013-10-07 03:52:00,